Capital City Airport
KLAN : now visible

Airfield :











YOU CAN JOIN US ON...

 
LOGIN :

Register | Disclaimer

   EN    FR    IT 

 









Legend :    VFR   Marginal VFR   IFR   Intensive IFR   Very Intensive IFR
Visi :
Ceiling :
>= 8 km
>= 3000ft
5 to 8 km
1000 to 3000 ft
1500m to 5 km
500 to 1000 ft
800 to 1500m
200 to 500 ft
< 800m
< 200 ft
Symbols :   Thunderstorms  Fog  Heavy snow  Heavy precipitations  Wind > 20 kt






- Airport Elevation : 861 ft
- IATA code : LAN


KLAN - Capital City

CURRENT METAR :
  • 220053Z 18005KT 10SM CLR M07/M15 A3047 RMK AO2 SLP336 T10721150

EXPIRED METARs :
  • 212353Z 17004KT 10SM CLR M07/M15 A3048 RMK AO2 SLP337 T10721150 11050 21072 58009
  • 212253Z 18006KT 10SM CLR M07/M14 A3049 RMK AO2 SLP340 T10671144

TAF KLAN
Valid from the 22 at 00:00 until the 23 at 00:00 UTC


212344Z 2200/2224 18005KT P6SM SKC
FM221200 20010G16KT P6SM SCT060
FM221300 22014G24KT P6SM BKN040
FM221400 22014G24KT 4SM -SHSN BR OVC030
FM222200 26013G22KT 5SM -SHSN BR OVC025
KZOB FIR / North America



MET'MAP, your aeronautical weather chart ! - Copyright ORBIFLY December 2007 - Disclaimer

ORBIFLY MET'MAP TEAM :

Programming & Development : Alexandra Zaïnal
Concept & original design : Baudouin d'Aumeries
Assistance for programming : Marc-Olivier Méhu
Technical & hardware support : Manuel Goepfert

Contact : metmap@orbifly.com




SOURCES & CREDITS :

   NOAA       Earth
Advisory